sensor_id;sensor_type;location;lat;lon;timestamp;pressure;altitude;pressure_sealevel;temperature;humidity
34586;BME280;20816;50.950;11.108;2023-05-15T00:02:07;98066.06;;;9.54;100.00
34586;BME280;20816;50.950;11.108;2023-05-15T00:04:34;98073.19;;;9.49;100.00
34586;BME280;20816;50.950;11.108;2023-05-15T00:07:01;98064.38;;;9.51;100.00
34586;BME280;20816;50.950;11.108;2023-05-15T00:09:27;98059.22;;;9.48;100.00
34586;BME280;20816;50.950;11.108;2023-05-15T00:11:54;98063.50;;;9.51;100.00
34586;BME280;20816;50.950;11.108;2023-05-15T00:14:21;98054.00;;;9.47;100.00
34586;BME280;20816;50.950;11.108;2023-05-15T00:16:48;98056.63;;;9.47;100.00
34586;BME280;20816;50.950;11.108;2023-05-15T00:19:14;98055.06;;;9.40;100.00
34586;BME280;20816;50.950;11.108;2023-05-15T00:21:41;98054.25;;;9.38;100.00
34586;BME280;20816;50.950;11.108;2023-05-15T00:24:08;98064.75;;;9.38;100.00
34586;BME280;20816;50.950;11.108;2023-05-15T00:26:35;98054.97;;;9.43;100.00
34586;BME280;20816;50.950;11.108;2023-05-15T00:29:02;98054.06;;;9.44;100.00
34586;BME280;20816;50.950;11.108;2023-05-15T00:31:28;98056.59;;;9.48;100.00
34586;BME280;20816;50.950;11.108;2023-05-15T00:33:56;98056.44;;;9.54;100.00
34586;BME280;20816;50.950;11.108;2023-05-15T00:36:23;98045.84;;;9.58;100.00
34586;BME280;20816;50.950;11.108;2023-05-15T00:38:51;98041.41;;;9.60;100.00
34586;BME280;20816;50.950;11.108;2023-05-15T00:41:19;98044.13;;;9.57;100.00
34586;BME280;20816;50.950;11.108;2023-05-15T00:43:49;98045.84;;;9.58;100.00
34586;BME280;20816;50.950;11.108;2023-05-15T00:46:16;98041.47;;;9.58;100.00
34586;BME280;20816;50.950;11.108;2023-05-15T00:48:43;98045.91;;;9.56;100.00
34586;BME280;20816;50.950;11.108;2023-05-15T00:51:10;98043.94;;;9.64;100.00
34586;BME280;20816;50.950;11.108;2023-05-15T00:53:38;98037.94;;;9.59;100.00
34586;BME280;20816;50.950;11.108;2023-05-15T00:56:06;98036.16;;;9.61;100.00
34586;BME280;20816;50.950;11.108;2023-05-15T00:58:35;98044.84;;;9.63;100.00
34586;BME280;20816;50.950;11.108;2023-05-15T01:01:02;98044.59;;;9.72;100.00
34586;BME280;20816;50.950;11.108;2023-05-15T01:03:30;98041.16;;;9.70;100.00
34586;BME280;20816;50.950;11.108;2023-05-15T01:05:57;98034.09;;;9.72;100.00
34586;BME280;20816;50.950;11.108;2023-05-15T01:08:41;98028.84;;;9.72;100.00
34586;BME280;20816;50.950;11.108;2023-05-15T01:11:11;98030.72;;;9.67;100.00
34586;BME280;20816;50.950;11.108;2023-05-15T01:13:38;98025.41;;;9.70;100.00
34586;BME280;20816;50.950;11.108;2023-05-15T01:16:06;98020.16;;;9.70;100.00
34586;BME280;20816;50.950;11.108;2023-05-15T01:18:33;98023.41;;;9.78;100.00
34586;BME280;20816;50.950;11.108;2023-05-15T01:29:26;98023.31;;;9.81;100.00
34586;BME280;20816;50.950;11.108;2023-05-15T01:32:01;98021.78;;;9.74;100.00
34586;BME280;20816;50.950;11.108;2023-05-15T01:34:33;98021.78;;;9.74;100.00
34586;BME280;20816;50.950;11.108;2023-05-15T01:37:01;98017.47;;;9.72;100.00
34586;BME280;20816;50.950;11.108;2023-05-15T01:39:31;98019.34;;;9.67;100.00
34586;BME280;20816;50.950;11.108;2023-05-15T01:42:06;98019.47;;;9.64;100.00
34586;BME280;20816;50.950;11.108;2023-05-15T01:44:35;98024.00;;;9.57;100.00
34586;BME280;20816;50.950;11.108;2023-05-15T01:47:12;98017.19;;;9.50;100.00
34586;BME280;20816;50.950;11.108;2023-05-15T01:49:41;98026.06;;;9.46;100.00
34586;BME280;20816;50.950;11.108;2023-05-15T01:52:31;98029.66;;;9.42;100.00
34586;BME280;20816;50.950;11.108;2023-05-15T01:55:00;98013.06;;;9.41;100.00
34586;BME280;20816;50.950;11.108;2023-05-15T01:57:28;98011.28;;;9.42;100.00
34586;BME280;20816;50.950;11.108;2023-05-15T01:59:57;98014.66;;;9.47;100.00
34586;BME280;20816;50.950;11.108;2023-05-15T02:02:26;98005.69;;;9.55;100.00
34586;BME280;20816;50.950;11.108;2023-05-15T02:04:54;98009.13;;;9.58;100.00
34586;BME280;20816;50.950;11.108;2023-05-15T02:07:22;98013.84;;;9.45;100.00
34586;BME280;20816;50.950;11.108;2023-05-15T02:09:51;98013.91;;;9.42;100.00
34586;BME280;20816;50.950;11.108;2023-05-15T02:12:18;98013.91;;;9.42;100.00
34586;BME280;20816;50.950;11.108;2023-05-15T02:14:47;98010.59;;;9.35;100.00
34586;BME280;20816;50.950;11.108;2023-05-15T02:17:15;98006.13;;;9.39;100.00
34586;BME280;20816;50.950;11.108;2023-05-15T02:19:41;98003.44;;;9.42;100.00
34586;BME280;20816;50.950;11.108;2023-05-15T02:22:08;97999.03;;;9.42;100.00
34586;BME280;20816;50.950;11.108;2023-05-15T02:24:35;98001.81;;;9.38;100.00
34586;BME280;20816;50.950;11.108;2023-05-15T02:27:23;97994.75;;;9.40;100.00
34586;BME280;20816;50.950;11.108;2023-05-15T02:32:55;97990.59;;;9.31;100.00
34586;BME280;20816;50.950;11.108;2023-05-15T02:38:00;97991.38;;;9.35;100.00
34586;BME280;20816;50.950;11.108;2023-05-15T02:40:29;97991.31;;;9.38;100.00
34586;BME280;20816;50.950;11.108;2023-05-15T02:42:57;97982.69;;;9.33;100.00
34586;BME280;20816;50.950;11.108;2023-05-15T02:45:24;97981.94;;;9.29;100.00
34586;BME280;20816;50.950;11.108;2023-05-15T02:47:52;97976.91;;;9.20;100.00
34586;BME280;20816;50.950;11.108;2023-05-15T02:50:18;97974.28;;;9.20;100.00
34586;BME280;20816;50.950;11.108;2023-05-15T02:52:45;97977.69;;;9.23;100.00
34586;BME280;20816;50.950;11.108;2023-05-15T02:55:12;97970.88;;;9.16;100.00
34586;BME280;20816;50.950;11.108;2023-05-15T02:57:39;97965.81;;;9.10;100.00
34586;BME280;20816;50.950;11.108;2023-05-15T03:00:06;97969.13;;;9.17;100.00
34586;BME280;20816;50.950;11.108;2023-05-15T03:02:34;97971.59;;;9.23;100.00
34586;BME280;20816;50.950;11.108;2023-05-15T03:05:01;97967.31;;;9.20;100.00
34586;BME280;20816;50.950;11.108;2023-05-15T03:07:28;97969.03;;;9.21;100.00
34586;BME280;20816;50.950;11.108;2023-05-15T03:09:54;97974.31;;;9.18;100.00
34586;BME280;20816;50.950;11.108;2023-05-15T03:12:21;97977.00;;;9.17;100.00
34586;BME280;20816;50.950;11.108;2023-05-15T03:14:48;97965.66;;;9.16;100.00
34586;BME280;20816;50.950;11.108;2023-05-15T03:17:14;97974.31;;;9.18;100.00
34586;BME280;20816;50.950;11.108;2023-05-15T03:19:41;97977.69;;;9.23;100.00
34586;BME280;20816;50.950;11.108;2023-05-15T03:22:08;97970.81;;;9.19;100.00
34586;BME280;20816;50.950;11.108;2023-05-15T03:24:35;97961.41;;;9.11;100.00
34586;BME280;20816;50.950;11.108;2023-05-15T03:27:01;97960.50;;;9.13;100.00
34586;BME280;20816;50.950;11.108;2023-05-15T03:29:28;97961.50;;;9.08;100.00
34586;BME280;20816;50.950;11.108;2023-05-15T03:31:55;97958.06;;;9.06;100.00
34586;BME280;20816;50.950;11.108;2023-05-15T03:34:21;97962.47;;;9.05;100.00
34586;BME280;20816;50.950;11.108;2023-05-15T03:36:48;97960.66;;;9.07;100.00
34586;BME280;20816;50.950;11.108;2023-05-15T03:39:15;97958.88;;;9.08;100.00
34586;BME280;20816;50.950;11.108;2023-05-15T03:41:41;97955.56;;;9.01;100.00
34586;BME280;20816;50.950;11.108;2023-05-15T03:44:08;97959.09;;;9.00;100.00
34586;BME280;20816;50.950;11.108;2023-05-15T03:46:34;97952.94;;;9.01;100.00
34586;BME280;20816;50.950;11.108;2023-05-15T03:49:01;97955.56;;;9.01;100.00
34586;BME280;20816;50.950;11.108;2023-05-15T03:51:28;97958.19;;;9.01;100.00
34586;BME280;20816;50.950;11.108;2023-05-15T03:53:55;97958.94;;;9.06;100.00
34586;BME280;20816;50.950;11.108;2023-05-15T03:56:22;97955.41;;;9.07;100.00
34586;BME280;20816;50.950;11.108;2023-05-15T03:58:48;97951.88;;;9.08;100.00
34586;BME280;20816;50.950;11.108;2023-05-15T04:01:15;97948.44;;;9.06;100.00
34586;BME280;20816;50.950;11.108;2023-05-15T04:03:41;97945.47;;;9.18;100.00
34586;BME280;20816;50.950;11.108;2023-05-15T04:06:08;97943.72;;;9.20;100.00
34586;BME280;20816;50.950;11.108;2023-05-15T04:08:35;97934.72;;;9.29;100.00
34586;BME280;20816;50.950;11.108;2023-05-15T04:11:01;97940.63;;;9.36;100.00
34586;BME280;20816;50.950;11.108;2023-05-15T04:13:28;97929.91;;;9.45;100.00
34586;BME280;20816;50.950;11.108;2023-05-15T04:15:55;97928.00;;;9.50;100.00
34586;BME280;20816;50.950;11.108;2023-05-15T04:18:21;97938.38;;;9.54;100.00
34586;BME280;20816;50.950;11.108;2023-05-15T04:20:48;97943.44;;;9.61;100.00
34586;BME280;20816;50.950;11.108;2023-05-15T04:23:14;97934.53;;;9.66;100.00
34586;BME280;20816;50.950;11.108;2023-05-15T04:25:41;97943.22;;;9.68;100.00
34586;BME280;20816;50.950;11.108;2023-05-15T04:28:12;97936.09;;;9.73;100.00
34586;BME280;20816;50.950;11.108;2023-05-15T04:30:39;97942.03;;;9.80;100.00
34586;BME280;20816;50.950;11.108;2023-05-15T04:33:06;97941.00;;;9.86;100.00
34586;BME280;20816;50.950;11.108;2023-05-15T04:35:33;97943.41;;;9.92;100.00
34586;BME280;20816;50.950;11.108;2023-05-15T04:38:00;97936.22;;;9.98;100.00
34586;BME280;20816;50.950;11.108;2023-05-15T04:40:27;97932.00;;;9.93;100.00
34586;BME280;20816;50.950;11.108;2023-05-15T04:42:54;97932.69;;;9.99;100.00
34586;BME280;20816;50.950;11.108;2023-05-15T04:45:20;97937.41;;;10.16;100.00
34586;BME280;20816;50.950;11.108;2023-05-15T04:47:47;97936.13;;;10.31;100.00
34586;BME280;20816;50.950;11.108;2023-05-15T04:50:13;97937.22;;;10.52;100.00
34586;BME280;20816;50.950;11.108;2023-05-15T04:52:40;97933.97;;;10.70;100.00
34586;BME280;20816;50.950;11.108;2023-05-15T04:55:08;97932.25;;;10.95;100.00
34586;BME280;20816;50.950;11.108;2023-05-15T04:57:35;97929.81;;;11.16;100.00
34586;BME280;20816;50.950;11.108;2023-05-15T05:00:02;97932.44;;;11.39;100.00
34586;BME280;20816;50.950;11.108;2023-05-15T05:02:31;97933.31;;;11.65;100.00
34586;BME280;20816;50.950;11.108;2023-05-15T05:04:58;97929.78;;;11.89;100.00
34586;BME280;20816;50.950;11.108;2023-05-15T05:07:24;97936.13;;;12.07;100.00
34586;BME280;20816;50.950;11.108;2023-05-15T05:09:51;97921.16;;;12.31;100.00
34586;BME280;20816;50.950;11.108;2023-05-15T05:12:17;97941.34;;;12.52;100.00
34586;BME280;20816;50.950;11.108;2023-05-15T05:14:44;97936.53;;;12.63;100.00
34586;BME280;20816;50.950;11.108;2023-05-15T05:17:11;97937.28;;;12.87;100.00
34586;BME280;20816;50.950;11.108;2023-05-15T05:19:37;97933.97;;;13.03;100.00
34586;BME280;20816;50.950;11.108;2023-05-15T05:22:04;97937.69;;;13.21;100.00
34586;BME280;20816;50.950;11.108;2023-05-15T05:24:31;97931.25;;;13.26;99.57
34586;BME280;20816;50.950;11.108;2023-05-15T05:26:58;97932.78;;;13.52;98.18
34586;BME280;20816;50.950;11.108;2023-05-15T05:29:25;97919.53;;;13.72;96.20
34586;BME280;20816;50.950;11.108;2023-05-15T05:31:52;97928.19;;;13.95;94.07
34586;BME280;20816;50.950;11.108;2023-05-15T05:34:19;97926.53;;;14.11;92.88
34586;BME280;20816;50.950;11.108;2023-05-15T05:36:46;97921.25;;;14.11;92.08
34586;BME280;20816;50.950;11.108;2023-05-15T05:39:12;97912.00;;;14.39;91.87
34586;BME280;20816;50.950;11.108;2023-05-15T05:41:39;97915.91;;;14.68;91.38
34586;BME280;20816;50.950;11.108;2023-05-15T05:44:06;97916.53;;;14.90;89.30
34586;BME280;20816;50.950;11.108;2023-05-15T05:46:33;97917.44;;;15.08;87.07
34586;BME280;20816;50.950;11.108;2023-05-15T05:49:00;97916.50;;;15.09;86.81
34586;BME280;20816;50.950;11.108;2023-05-15T05:51:26;97908.81;;;15.37;85.85
34586;BME280;20816;50.950;11.108;2023-05-15T05:53:53;97911.06;;;15.62;84.86
34586;BME280;20816;50.950;11.108;2023-05-15T05:56:20;97904.09;;;15.77;82.63
34586;BME280;20816;50.950;11.108;2023-05-15T05:58:48;97923.28;;;15.82;83.13
34586;BME280;20816;50.950;11.108;2023-05-15T06:01:15;97914.56;;;16.12;81.51
34586;BME280;20816;50.950;11.108;2023-05-15T06:03:41;97915.44;;;16.28;80.83
34586;BME280;20816;50.950;11.108;2023-05-15T06:06:09;97915.69;;;16.23;79.88
34586;BME280;20816;50.950;11.108;2023-05-15T06:08:36;97918.69;;;16.17;80.68
34586;BME280;20816;50.950;11.108;2023-05-15T06:11:03;97917.75;;;16.34;80.57
34586;BME280;20816;50.950;11.108;2023-05-15T06:13:30;97920.06;;;16.40;80.61
34586;BME280;20816;50.950;11.108;2023-05-15T06:15:57;97909.34;;;16.26;80.63
34586;BME280;20816;50.950;11.108;2023-05-15T06:18:24;97906.28;;;16.49;80.08
34586;BME280;20816;50.950;11.108;2023-05-15T06:20:50;97908.41;;;16.59;79.91
34586;BME280;20816;50.950;11.108;2023-05-15T06:23:18;97906.16;;;16.83;79.49
34586;BME280;20816;50.950;11.108;2023-05-15T06:25:46;97900.47;;;17.04;78.09
34586;BME280;20816;50.950;11.108;2023-05-15T06:28:13;97889.50;;;17.39;77.46
34586;BME280;20816;50.950;11.108;2023-05-15T06:30:39;97890.06;;;17.30;76.40
34586;BME280;20816;50.950;11.108;2023-05-15T06:33:06;97885.34;;;17.49;76.39
34586;BME280;20816;50.950;11.108;2023-05-15T06:35:33;97885.56;;;17.75;75.13
34586;BME280;20816;50.950;11.108;2023-05-15T06:37:59;97879.84;;;18.09;74.96
34586;BME280;20816;50.950;11.108;2023-05-15T06:40:27;97885.31;;;18.35;72.29
34586;BME280;20816;50.950;11.108;2023-05-15T06:42:54;97892.97;;;18.39;71.88
34586;BME280;20816;50.950;11.108;2023-05-15T06:45:20;97885.22;;;18.22;71.65
34586;BME280;20816;50.950;11.108;2023-05-15T06:47:48;97883.06;;;17.57;74.53
34586;BME280;20816;50.950;11.108;2023-05-15T06:50:14;97885.34;;;17.49;74.85
34586;BME280;20816;50.950;11.108;2023-05-15T06:52:41;97875.41;;;17.81;74.76
34586;BME280;20816;50.950;11.108;2023-05-15T06:55:08;97878.53;;;17.74;74.24
34586;BME280;20816;50.950;11.108;2023-05-15T06:57:34;97877.97;;;17.83;73.89
34586;BME280;20816;50.950;11.108;2023-05-15T07:00:01;97882.59;;;18.49;73.27
34586;BME280;20816;50.950;11.108;2023-05-15T07:02:28;97875.88;;;18.70;72.92
34586;BME280;20816;50.950;11.108;2023-05-15T07:04:54;97878.91;;;18.79;71.92
34586;BME280;20816;50.950;11.108;2023-05-15T07:07:21;97885.63;;;18.97;71.22
34586;BME280;20816;50.950;11.108;2023-05-15T07:09:48;97884.84;;;18.69;72.45
34586;BME280;20816;50.950;11.108;2023-05-15T07:12:15;97889.16;;;18.85;71.84
34586;BME280;20816;50.950;11.108;2023-05-15T07:14:42;97890.09;;;18.84;72.04
34586;BME280;20816;50.950;11.108;2023-05-15T07:17:08;97885.06;;;19.06;72.14
34586;BME280;20816;50.950;11.108;2023-05-15T07:19:35;97884.03;;;19.47;71.31
34586;BME280;20816;50.950;11.108;2023-05-15T07:22:02;97883.47;;;19.42;71.31
34586;BME280;20816;50.950;11.108;2023-05-15T07:24:29;97884.09;;;19.45;71.84
34586;BME280;20816;50.950;11.108;2023-05-15T07:26:56;97884.38;;;19.80;70.83
34586;BME280;20816;50.950;11.108;2023-05-15T07:29:24;97884.75;;;20.00;69.59
34586;BME280;20816;50.950;11.108;2023-05-15T07:31:52;97880.97;;;20.15;69.30
34586;BME280;20816;50.950;11.108;2023-05-15T07:34:19;97871.19;;;20.39;69.08
34586;BME280;20816;50.950;11.108;2023-05-15T07:36:46;97873.53;;;20.44;67.80
34586;BME280;20816;50.950;11.108;2023-05-15T07:39:12;97872.69;;;20.43;69.14
34586;BME280;20816;50.950;11.108;2023-05-15T07:41:39;97866.69;;;21.12;66.80
34586;BME280;20816;50.950;11.108;2023-05-15T07:44:06;97871.16;;;21.58;65.22
34586;BME280;20816;50.950;11.108;2023-05-15T07:46:33;97869.47;;;21.57;64.16
34586;BME280;20816;50.950;11.108;2023-05-15T07:49:00;97868.41;;;21.59;63.87
34586;BME280;20816;50.950;11.108;2023-05-15T07:51:27;97875.09;;;21.18;65.95
34586;BME280;20816;50.950;11.108;2023-05-15T07:53:54;97864.88;;;21.70;64.60
34586;BME280;20816;50.950;11.108;2023-05-15T07:56:21;97862.69;;;20.82;66.03
34586;BME280;20816;50.950;11.108;2023-05-15T07:58:48;97869.56;;;20.50;65.67
34586;BME280;20816;50.950;11.108;2023-05-15T08:01:15;97863.78;;;20.56;65.65
34586;BME280;20816;50.950;11.108;2023-05-15T08:03:42;97864.41;;;21.18;64.41
34586;BME280;20816;50.950;11.108;2023-05-15T08:06:09;97867.78;;;21.55;63.79
34586;BME280;20816;50.950;11.108;2023-05-15T08:08:36;97862.94;;;21.94;62.06
34586;BME280;20816;50.950;11.108;2023-05-15T08:11:03;97867.09;;;22.09;60.66
34586;BME280;20816;50.950;11.108;2023-05-15T08:13:29;97863.75;;;22.72;59.74
34586;BME280;20816;50.950;11.108;2023-05-15T08:15:56;97861.06;;;22.72;60.25
34586;BME280;20816;50.950;11.108;2023-05-15T08:18:23;97855.41;;;22.54;59.35
34586;BME280;20816;50.950;11.108;2023-05-15T08:20:49;97861.44;;;21.90;59.26
34586;BME280;20816;50.950;11.108;2023-05-15T08:23:17;97855.00;;;22.70;58.87
34586;BME280;20816;50.950;11.108;2023-05-15T08:25:44;97859.66;;;23.20;57.81
34586;BME280;20816;50.950;11.108;2023-05-15T08:28:11;97855.81;;;22.81;58.91
34586;BME280;20816;50.950;11.108;2023-05-15T08:30:37;97847.66;;;22.83;58.81
34586;BME280;20816;50.950;11.108;2023-05-15T08:33:04;97847.69;;;22.72;59.06
34586;BME280;20816;50.950;11.108;2023-05-15T08:35:31;97846.13;;;23.01;59.26
34586;BME280;20816;50.950;11.108;2023-05-15T08:37:58;97838.59;;;23.37;57.65
34586;BME280;20816;50.950;11.108;2023-05-15T08:40:25;97831.00;;;23.42;58.16
34586;BME280;20816;50.950;11.108;2023-05-15T08:43:15;97835.25;;;23.96;57.11
34586;BME280;20816;50.950;11.108;2023-05-15T08:45:43;97827.38;;;24.04;57.31
34586;BME280;20816;50.950;11.108;2023-05-15T08:48:12;97825.13;;;25.07;56.05
34586;BME280;20816;50.950;11.108;2023-05-15T08:50:40;97832.28;;;24.39;55.53
34586;BME280;20816;50.950;11.108;2023-05-15T08:53:12;97829.91;;;23.96;56.68
34586;BME280;20816;50.950;11.108;2023-05-15T08:55:39;97827.81;;;24.19;56.16
34586;BME280;20816;50.950;11.108;2023-05-15T08:58:07;97833.56;;;23.95;55.61
34586;BME280;20816;50.950;11.108;2023-05-15T09:00:35;97826.63;;;24.32;51.82
34586;BME280;20816;50.950;11.108;2023-05-15T09:03:04;97813.94;;;24.73;52.33
34586;BME280;20816;50.950;11.108;2023-05-15T09:05:31;97821.25;;;23.92;54.35
34586;BME280;20816;50.950;11.108;2023-05-15T09:08:00;97817.03;;;24.49;53.10
34586;BME280;20816;50.950;11.108;2023-05-15T09:10:30;97811.09;;;24.94;52.60
34586;BME280;20816;50.950;11.108;2023-05-15T09:12:58;97821.75;;;24.26;50.59
34586;BME280;20816;50.950;11.108;2023-05-15T09:15:28;97815.94;;;24.12;51.45
34586;BME280;20816;50.950;11.108;2023-05-15T09:17:56;97817.50;;;23.74;50.98
34586;BME280;20816;50.950;11.108;2023-05-15T09:20:29;97817.56;;;24.33;51.60
34586;BME280;20816;50.950;11.108;2023-05-15T09:22:58;97822.09;;;24.43;50.76
34586;BME280;20816;50.950;11.108;2023-05-15T09:27:59;97820.69;;;23.89;50.41
34586;BME280;20816;50.950;11.108;2023-05-15T09:30:27;97810.41;;;24.44;50.28
34586;BME280;20816;50.950;11.108;2023-05-15T09:33:01;97810.97;;;24.07;50.47
34586;BME280;20816;50.950;11.108;2023-05-15T09:35:33;97811.53;;;24.11;52.13
34586;BME280;20816;50.950;11.108;2023-05-15T09:38:02;97814.72;;;24.35;50.78
34586;BME280;20816;50.950;11.108;2023-05-15T09:40:31;97811.13;;;24.84;51.05
34586;BME280;20816;50.950;11.108;2023-05-15T09:42:58;97801.34;;;24.54;48.81
34586;BME280;20816;50.950;11.108;2023-05-15T09:45:26;97810.38;;;24.92;48.49
34586;BME280;20816;50.950;11.108;2023-05-15T09:47:58;97801.63;;;25.66;46.73
34586;BME280;20816;50.950;11.108;2023-05-15T09:50:37;97796.38;;;25.74;46.48
34586;BME280;20816;50.950;11.108;2023-05-15T09:53:04;97801.47;;;26.05;47.94
34586;BME280;20816;50.950;11.108;2023-05-15T09:55:33;97798.38;;;25.06;48.28
34586;BME280;20816;50.950;11.108;2023-05-15T09:58:05;97807.66;;;23.84;48.24
34586;BME280;20816;50.950;11.108;2023-05-15T10:00:33;97808.75;;;23.51;47.88
34586;BME280;20816;50.950;11.108;2023-05-15T10:03:01;97809.16;;;22.84;51.36
34586;BME280;20816;50.950;11.108;2023-05-15T10:05:29;97808.16;;;22.21;52.24
34586;BME280;20816;50.950;11.108;2023-05-15T10:08:08;97798.66;;;21.16;55.43
34586;BME280;20816;50.950;11.108;2023-05-15T10:10:35;97814.44;;;20.25;62.57
34586;BME280;20816;50.950;11.108;2023-05-15T10:13:01;97822.72;;;19.59;71.90
34586;BME280;20816;50.950;11.108;2023-05-15T10:15:31;97825.25;;;18.85;77.48
34586;BME280;20816;50.950;11.108;2023-05-15T10:17:58;97830.78;;;18.94;75.85
34586;BME280;20816;50.950;11.108;2023-05-15T10:20:26;97836.94;;;18.55;73.98
34586;BME280;20816;50.950;11.108;2023-05-15T10:22:54;97833.66;;;18.64;73.95
34586;BME280;20816;50.950;11.108;2023-05-15T10:25:40;97832.97;;;18.48;71.98
34586;BME280;20816;50.950;11.108;2023-05-15T10:28:09;97828.88;;;18.84;72.90
34586;BME280;20816;50.950;11.108;2023-05-15T10:30:37;97823.16;;;19.15;71.82
34586;BME280;20816;50.950;11.108;2023-05-15T10:33:06;97827.81;;;19.75;70.14
34586;BME280;20816;50.950;11.108;2023-05-15T10:35:34;97825.66;;;19.93;69.41
34586;BME280;20816;50.950;11.108;2023-05-15T10:38:03;97825.88;;;19.77;67.18
34586;BME280;20816;50.950;11.108;2023-05-15T10:40:31;97820.19;;;19.58;69.28
34586;BME280;20816;50.950;11.108;2023-05-15T10:42:59;97806.91;;;19.82;68.08
34586;BME280;20816;50.950;11.108;2023-05-15T10:45:29;97811.84;;;19.63;65.44
34586;BME280;20816;50.950;11.108;2023-05-15T10:47:57;97807.97;;;19.54;65.37
34586;BME280;20816;50.950;11.108;2023-05-15T10:50:27;97807.88;;;19.68;66.94
34586;BME280;20816;50.950;11.108;2023-05-15T10:52:54;97808.84;;;19.80;65.45
34586;BME280;20816;50.950;11.108;2023-05-15T10:55:21;97815.22;;;19.77;63.97
34586;BME280;20816;50.950;11.108;2023-05-15T10:57:48;97801.16;;;19.63;61.76
34586;BME280;20816;50.950;11.108;2023-05-15T11:02:49;97801.47;;;20.20;63.67
34586;BME280;20816;50.950;11.108;2023-05-15T11:05:19;97798.84;;;20.31;61.04
34586;BME280;20816;50.950;11.108;2023-05-15T11:10:40;97793.75;;;20.98;59.82
34586;BME280;20816;50.950;11.108;2023-05-15T11:13:07;97786.72;;;20.97;58.64
34586;BME280;20816;50.950;11.108;2023-05-15T11:15:42;97784.81;;;21.22;57.50
34586;BME280;20816;50.950;11.108;2023-05-15T11:18:09;97788.94;;;21.15;56.50
34586;BME280;20816;50.950;11.108;2023-05-15T11:23:14;97777.59;;;20.89;57.45
34586;BME280;20816;50.950;11.108;2023-05-15T11:25:41;97775.84;;;20.77;57.32
34586;BME280;20816;50.950;11.108;2023-05-15T11:28:20;97767.19;;;21.08;58.99
34586;BME280;20816;50.950;11.108;2023-05-15T11:30:50;97765.44;;;21.42;58.38
34586;BME280;20816;50.950;11.108;2023-05-15T11:33:19;97773.63;;;21.17;57.07
34586;BME280;20816;50.950;11.108;2023-05-15T11:35:46;97769.44;;;21.37;58.08
34586;BME280;20816;50.950;11.108;2023-05-15T11:38:17;97765.38;;;22.09;55.44
34586;BME280;20816;50.950;11.108;2023-05-15T11:40:58;97757.38;;;22.62;53.24
34586;BME280;20816;50.950;11.108;2023-05-15T11:43:33;97754.03;;;22.49;53.11
34586;BME280;20816;50.950;11.108;2023-05-15T11:46:06;97746.81;;;22.82;52.61
34586;BME280;20816;50.950;11.108;2023-05-15T11:48:38;97751.16;;;22.62;52.29
34586;BME280;20816;50.950;11.108;2023-05-15T11:51:18;97754.84;;;22.82;53.47
34586;BME280;20816;50.950;11.108;2023-05-15T11:53:45;97754.50;;;22.54;54.46
34586;BME280;20816;50.950;11.108;2023-05-15T11:56:23;97755.09;;;22.90;53.09
34586;BME280;20816;50.950;11.108;2023-05-15T11:58:55;97750.19;;;22.84;51.52
34586;BME280;20816;50.950;11.108;2023-05-15T12:01:22;97746.00;;;23.12;51.00
34586;BME280;20816;50.950;11.108;2023-05-15T12:03:50;97752.69;;;22.97;51.43
34586;BME280;20816;50.950;11.108;2023-05-15T12:06:17;97740.50;;;22.72;51.48
34586;BME280;20816;50.950;11.108;2023-05-15T12:08:49;97744.66;;;22.76;52.39
34586;BME280;20816;50.950;11.108;2023-05-15T12:11:21;97750.97;;;22.22;52.20
34586;BME280;20816;50.950;11.108;2023-05-15T12:13:52;97745.47;;;21.69;53.36
34586;BME280;20816;50.950;11.108;2023-05-15T12:16:24;97744.44;;;22.03;53.24
34586;BME280;20816;50.950;11.108;2023-05-15T12:18:52;97744.94;;;22.08;53.81
34586;BME280;20816;50.950;11.108;2023-05-15T12:21:19;97749.41;;;22.19;53.71
34586;BME280;20816;50.950;11.108;2023-05-15T12:23:52;97743.91;;;22.21;55.17
34586;BME280;20816;50.950;11.108;2023-05-15T12:26:33;97751.97;;;21.98;54.38
34586;BME280;20816;50.950;11.108;2023-05-15T12:29:02;97744.22;;;21.95;53.33
34586;BME280;20816;50.950;11.108;2023-05-15T12:31:29;97751.28;;;22.07;53.31
34586;BME280;20816;50.950;11.108;2023-05-15T12:33:56;97746.63;;;21.98;53.77
34586;BME280;20816;50.950;11.108;2023-05-15T12:36:26;97738.91;;;21.84;54.75
34586;BME280;20816;50.950;11.108;2023-05-15T12:38:55;97751.81;;;21.68;55.09
34586;BME280;20816;50.950;11.108;2023-05-15T12:41:28;97752.63;;;20.55;58.15
34586;BME280;20816;50.950;11.108;2023-05-15T12:43:55;97752.94;;;20.26;57.83
34586;BME280;20816;50.950;11.108;2023-05-15T12:46:22;97760.75;;;20.29;59.02
34586;BME280;20816;50.950;11.108;2023-05-15T12:48:50;97761.16;;;20.12;60.74
34586;BME280;20816;50.950;11.108;2023-05-15T12:51:17;97762.72;;;19.91;61.90
34586;BME280;20816;50.950;11.108;2023-05-15T12:53:44;97765.75;;;19.73;62.54
34586;BME280;20816;50.950;11.108;2023-05-15T12:56:16;97763.59;;;19.78;62.66
34586;BME280;20816;50.950;11.108;2023-05-15T12:58:42;97769.59;;;19.69;62.86
34586;BME280;20816;50.950;11.108;2023-05-15T13:01:09;97766.63;;;19.61;63.45
34586;BME280;20816;50.950;11.108;2023-05-15T13:03:36;97762.69;;;19.41;64.25
34586;BME280;20816;50.950;11.108;2023-05-15T13:06:04;97763.81;;;19.75;63.84
34586;BME280;20816;50.950;11.108;2023-05-15T13:08:38;97759.66;;;20.08;62.98
34586;BME280;20816;50.950;11.108;2023-05-15T13:11:10;97756.59;;;20.25;62.36
34586;BME280;20816;50.950;11.108;2023-05-15T13:13:48;97749.38;;;20.62;61.03
34586;BME280;20816;50.950;11.108;2023-05-15T13:16:26;97750.38;;;20.84;59.53
34586;BME280;20816;50.950;11.108;2023-05-15T13:18:55;97734.75;;;21.24;58.45
34586;BME280;20816;50.950;11.108;2023-05-15T13:21:25;97742.47;;;21.29;58.09